createdAt,value
2022-09-20T03:58:13.403Z,6.23
2022-09-20T04:02:02.192Z,6.20
2022-09-20T04:05:38.057Z,6.17
2022-09-20T04:09:26.807Z,6.13
2022-09-20T04:13:09.175Z,6.10
2022-09-20T04:16:44.135Z,6.07
2022-09-20T04:20:24.019Z,6.04
2022-09-20T04:23:52.274Z,6.01
2022-09-20T04:27:25.933Z,6.00
2022-09-20T04:30:56.739Z,5.97
2022-09-20T04:34:49.520Z,5.96
2022-09-20T04:38:21.098Z,5.94
2022-09-20T04:42:16.280Z,5.93
2022-09-20T04:46:09.558Z,5.91
2022-09-20T04:50:20.478Z,5.91
2022-09-20T04:54:13.297Z,5.93
2022-09-20T04:58:11.145Z,5.95
2022-09-20T05:02:09.686Z,5.97
2022-09-20T05:06:04.868Z,6.00
2022-09-20T05:09:53.689Z,6.06
2022-09-20T05:13:33.421Z,6.15
2022-09-20T05:17:15.805Z,6.30
2022-09-20T05:20:59.556Z,6.52
2022-09-20T05:24:52.690Z,6.81
2022-09-20T05:28:28.414Z,7.23
2022-09-20T05:32:03.062Z,7.59
2022-09-20T05:35:38.337Z,7.87
2022-09-20T05:39:18.630Z,8.07
2022-09-20T05:42:52.402Z,8.16
2022-09-20T05:46:34.249Z,8.24
2022-09-20T05:50:17.183Z,8.29
2022-09-20T05:54:20.913Z,8.35
2022-09-20T05:58:04.176Z,8.41
2022-09-20T06:01:35.458Z,8.46
2022-09-20T06:05:10.914Z,8.50
2022-09-20T06:08:58.864Z,8.56
2022-09-20T06:12:45.414Z,8.64
2022-09-20T06:16:19.599Z,8.72
2022-09-20T06:19:52.951Z,8.79
2022-09-20T06:23:21.417Z,8.88
2022-09-20T06:26:49.634Z,8.98
2022-09-20T06:30:20.933Z,9.07
2022-09-20T06:33:53.724Z,9.19
2022-09-20T06:37:53.417Z,9.35
2022-09-20T06:41:32.260Z,9.43
2022-09-20T06:44:59.394Z,9.49
2022-09-20T06:48:26.229Z,9.56
2022-09-20T06:51:53.043Z,9.63
2022-09-20T06:55:29.372Z,9.66
2022-09-20T06:58:56.419Z,9.68
2022-09-20T07:02:23.572Z,9.72
2022-09-20T07:05:50.914Z,9.85
2022-09-20T07:09:17.840Z,10.04
2022-09-20T07:12:46.337Z,10.19
2022-09-20T07:16:15.099Z,10.35
2022-09-20T07:19:41.713Z,10.52
2022-09-20T07:23:08.325Z,10.64
2022-09-20T07:26:35.241Z,10.68
2022-09-20T07:30:02.578Z,10.73
2022-09-20T07:33:29.310Z,10.86
2022-09-20T07:36:57.475Z,11.03
2022-09-20T07:40:24.312Z,11.19
2022-09-20T07:43:52.652Z,11.28
2022-09-20T07:47:19.902Z,11.36
2022-09-20T07:50:53.495Z,11.45
2022-09-20T07:54:21.185Z,11.64
2022-09-20T07:57:47.847Z,11.81
2022-09-20T08:01:15.434Z,11.92
2022-09-20T08:04:42.032Z,12.05
2022-09-20T08:08:09.585Z,12.28
2022-09-20T08:11:39.782Z,12.55
2022-09-20T08:15:11.732Z,12.82
2022-09-20T08:18:39.076Z,13.01
2022-09-20T08:22:06.002Z,13.11
2022-09-20T08:25:32.843Z,13.23
2022-09-20T08:29:01.240Z,13.32
2022-09-20T08:32:28.047Z,13.36
2022-09-20T08:35:57.659Z,13.49
2022-09-20T08:43:14.547Z,13.92
2022-09-20T08:46:43.617Z,14.11
2022-09-20T08:50:18.776Z,14.33
2022-09-20T08:53:50.242Z,14.64
2022-09-20T08:57:18.631Z,14.93
2022-09-20T09:00:47.917Z,15.02
2022-09-20T09:04:18.927Z,15.04
2022-09-20T09:07:45.738Z,15.12
2022-09-20T09:11:16.906Z,15.29
2022-09-20T09:14:51.665Z,15.28
2022-09-20T09:18:18.289Z,15.27
2022-09-20T09:21:45.651Z,15.34
2022-09-20T09:25:32.261Z,15.29
2022-09-20T09:29:21.288Z,15.46
2022-09-20T09:32:48.496Z,15.48
2022-09-20T09:36:18.728Z,15.37
2022-09-20T09:39:45.389Z,15.54
2022-09-20T09:43:27.000Z,15.77
2022-09-20T09:46:55.508Z,16.11
2022-09-20T09:50:27.708Z,16.30
2022-09-20T09:53:55.271Z,16.45
2022-09-20T09:57:45.813Z,16.68
2022-09-20T10:01:32.528Z,16.70
2022-09-20T10:05:06.795Z,16.71
2022-09-20T10:08:40.914Z,16.80
2022-09-20T10:12:28.505Z,16.91
2022-09-20T10:16:07.408Z,17.08
2022-09-20T10:19:50.833Z,17.31
2022-09-20T10:23:58.490Z,17.36
2022-09-20T10:27:41.916Z,17.41
2022-09-20T10:31:16.041Z,17.55
2022-09-20T10:34:59.571Z,17.64
2022-09-20T10:38:31.530Z,17.74
2022-09-20T10:42:23.918Z,17.80
2022-09-20T10:46:30.330Z,17.95
2022-09-20T10:49:57.312Z,18.14
2022-09-20T10:53:39.579Z,18.22
2022-09-20T10:57:19.968Z,18.35
2022-09-20T11:00:53.767Z,18.58
2022-09-20T11:04:48.173Z,18.63
2022-09-20T11:08:18.937Z,18.54
2022-09-20T11:11:49.141Z,18.08
2022-09-20T11:15:22.399Z,17.21
2022-09-20T11:18:56.136Z,16.64
2022-09-20T11:22:28.257Z,16.21
2022-09-20T11:25:57.944Z,15.97
2022-09-20T11:29:32.804Z,15.84
2022-09-20T11:33:07.802Z,15.88
2022-09-20T11:36:41.250Z,16.15
2022-09-20T11:40:24.618Z,16.48
2022-09-20T11:43:52.108Z,16.80
2022-09-20T11:47:50.032Z,17.09
2022-09-20T11:51:31.491Z,17.45
2022-09-20T11:55:21.230Z,17.84
2022-09-20T11:58:49.444Z,18.25
2022-09-20T12:02:23.231Z,18.39
2022-09-20T12:05:57.427Z,18.47
2022-09-20T12:09:32.371Z,18.66
2022-09-20T12:13:01.480Z,18.89
2022-09-20T12:16:41.927Z,18.89
2022-09-20T12:20:39.428Z,18.92
2022-09-20T12:24:20.483Z,19.17
2022-09-20T12:28:00.314Z,19.22
2022-09-20T12:31:50.411Z,19.07
2022-09-20T12:35:55.089Z,19.08
2022-09-20T12:39:29.760Z,19.26
2022-09-20T12:42:59.210Z,19.29
2022-09-20T12:46:32.829Z,19.12
2022-09-20T12:50:19.379Z,18.93
2022-09-20T12:53:58.850Z,18.77
2022-09-20T12:57:33.118Z,18.66
2022-09-20T13:01:34.882Z,18.72
2022-09-20T13:05:02.723Z,18.38
2022-09-20T13:08:33.021Z,17.51
2022-09-20T13:12:03.968Z,16.71
2022-09-20T13:15:33.287Z,16.17
2022-09-20T13:19:05.893Z,15.86
2022-09-20T13:22:43.514Z,15.48
2022-09-20T13:26:13.140Z,15.25
2022-09-20T13:29:43.343Z,15.09
2022-09-20T13:33:26.960Z,14.93
2022-09-20T13:36:58.434Z,14.81
2022-09-20T13:40:33.439Z,14.60
2022-09-20T13:44:01.213Z,14.43
2022-09-20T13:47:31.353Z,14.31
2022-09-20T13:50:59.019Z,14.16
2022-09-20T13:54:31.318Z,13.95
2022-09-20T13:58:01.228Z,13.76
2022-09-20T14:01:31.997Z,13.56
2022-09-20T14:05:01.394Z,13.42
2022-09-20T14:08:32.699Z,13.30
2022-09-20T14:12:01.200Z,13.20
2022-09-20T14:15:32.224Z,13.25
2022-09-20T14:18:59.817Z,13.43
2022-09-20T14:22:28.798Z,13.64
2022-09-20T14:26:25.813Z,13.85
2022-09-20T14:29:54.328Z,14.05
2022-09-20T14:33:22.636Z,14.23
2022-09-20T14:36:51.131Z,14.40
2022-09-20T14:40:25.657Z,14.53
2022-09-20T14:43:58.139Z,14.67
2022-09-20T14:47:38.542Z,14.72
2022-09-20T14:51:25.558Z,14.82
2022-09-20T14:55:03.491Z,14.93
2022-09-20T14:58:31.361Z,14.99
2022-09-20T15:02:15.741Z,15.04
2022-09-20T15:05:48.848Z,15.07
2022-09-20T15:09:16.806Z,15.15
2022-09-20T15:12:43.936Z,15.20
2022-09-20T15:16:11.721Z,15.24
2022-09-20T15:19:38.450Z,15.24
2022-09-20T15:23:05.788Z,15.28
2022-09-20T15:26:32.997Z,15.28
2022-09-20T15:29:59.737Z,15.25
2022-09-20T15:33:26.891Z,15.21
2022-09-20T15:36:54.687Z,15.11
2022-09-20T15:40:22.191Z,15.03
2022-09-20T15:43:50.489Z,15.00
2022-09-20T15:47:17.412Z,14.95
2022-09-20T15:50:44.364Z,14.91
2022-09-20T15:54:15.888Z,14.87
2022-09-20T15:57:42.667Z,14.82
2022-09-20T16:01:11.202Z,14.75
2022-09-20T16:04:38.024Z,14.65
2022-09-20T16:08:05.572Z,14.57
2022-09-20T16:11:32.729Z,14.52
2022-09-20T16:15:00.585Z,14.44
2022-09-20T16:18:45.628Z,14.40
2022-09-20T16:22:13.351Z,14.33
2022-09-20T16:25:40.467Z,14.27
2022-09-20T16:29:08.307Z,14.22
2022-09-20T16:32:35.869Z,14.14
2022-09-20T16:36:03.028Z,14.04
2022-09-20T16:39:32.104Z,13.96
2022-09-20T16:43:00.355Z,13.83
2022-09-20T16:46:28.767Z,13.68
2022-09-20T16:49:57.458Z,13.52
2022-09-20T16:53:25.051Z,13.34
2022-09-20T16:56:52.812Z,13.17
2022-09-20T17:00:22.084Z,13.00
2022-09-20T17:03:49.889Z,12.83
2022-09-20T17:07:17.243Z,12.68
2022-09-20T17:10:46.057Z,12.55
2022-09-20T17:14:14.108Z,12.43
2022-09-20T17:17:43.316Z,12.33
2022-09-20T17:21:14.079Z,12.27
2022-09-20T17:24:41.832Z,12.23
2022-09-20T17:28:09.235Z,12.20
2022-09-20T17:31:39.590Z,12.19
2022-09-20T17:35:07.945Z,12.17
2022-09-20T17:38:36.334Z,12.14
2022-09-20T17:42:03.192Z,12.08
2022-09-20T17:45:29.988Z,12.02
2022-09-20T17:48:58.151Z,11.96
2022-09-20T17:52:24.814Z,11.91
2022-09-20T17:55:57.269Z,11.86
2022-09-20T17:59:24.588Z,11.80
2022-09-20T18:02:51.137Z,11.73
2022-09-20T18:06:19.517Z,11.66
2022-09-20T18:09:46.363Z,11.57
2022-09-20T18:13:15.028Z,11.46
2022-09-20T18:16:44.421Z,11.35
2022-09-20T18:20:12.290Z,11.23
2022-09-20T18:23:39.218Z,11.10
2022-09-20T18:27:06.557Z,10.99
2022-09-20T18:30:34.361Z,10.89
2022-09-20T18:34:03.342Z,10.80
2022-09-20T18:37:31.569Z,10.69
2022-09-20T18:41:00.982Z,10.57
2022-09-20T18:44:32.050Z,10.47
2022-09-20T18:48:00.496Z,10.35
2022-09-20T18:51:29.065Z,10.26
2022-09-20T18:54:57.235Z,10.15
2022-09-20T18:58:25.562Z,10.05
2022-09-20T19:02:14.468Z,9.96
2022-09-20T19:05:46.709Z,9.84
2022-09-20T19:09:25.090Z,9.78
2022-09-20T19:12:58.765Z,9.72
2022-09-20T19:16:31.448Z,9.68
2022-09-20T19:20:03.888Z,9.66
2022-09-20T19:23:46.502Z,9.64
2022-09-20T19:27:15.532Z,9.59
2022-09-20T19:30:43.887Z,9.55
2022-09-20T19:34:19.509Z,9.50
2022-09-20T19:38:04.235Z,9.44
2022-09-20T19:41:43.208Z,9.37
2022-09-20T19:45:19.799Z,9.30
2022-09-20T19:48:55.205Z,9.23
2022-09-20T19:52:22.947Z,9.17
2022-09-20T19:55:54.557Z,9.12
2022-09-20T19:59:23.088Z,9.06
2022-09-20T20:02:51.110Z,9.00
2022-09-20T20:06:26.610Z,8.94
2022-09-20T20:10:01.511Z,8.87
2022-09-20T20:13:53.378Z,8.81
2022-09-20T20:17:33.741Z,8.74
2022-09-20T20:21:01.732Z,8.67
2022-09-20T20:24:35.780Z,8.61
2022-09-20T20:28:02.935Z,8.54
2022-09-20T20:31:30.464Z,8.47
2022-09-20T20:34:57.667Z,8.41
2022-09-20T20:38:26.021Z,8.34
2022-09-20T20:41:52.933Z,8.27
2022-09-20T20:45:21.442Z,8.22
2022-09-20T20:48:48.495Z,8.16
2022-09-20T20:52:15.458Z,8.12
2022-09-20T20:55:42.536Z,8.07
2022-09-20T20:59:09.481Z,8.02
2022-09-20T21:02:36.077Z,7.97
2022-09-20T21:06:04.466Z,7.91
2022-09-20T21:09:32.124Z,7.87
2022-09-20T21:13:00.124Z,7.80
2022-09-20T21:16:29.965Z,7.75
2022-09-20T21:19:55.314Z,7.71
2022-09-20T21:23:22.235Z,7.66
2022-09-20T21:26:49.146Z,7.61
2022-09-20T21:30:16.801Z,7.53
2022-09-20T21:33:45.186Z,7.48
2022-09-20T21:37:12.174Z,7.42
2022-09-20T21:40:39.659Z,7.37
2022-09-20T21:44:09.928Z,7.30
2022-09-20T21:47:36.603Z,7.24
2022-09-20T21:51:09.213Z,7.18
2022-09-20T21:54:35.815Z,7.12
2022-09-20T21:58:02.825Z,7.06
2022-09-20T22:01:33.681Z,7.01
2022-09-20T22:05:01.747Z,6.95
2022-09-20T22:08:29.202Z,6.89
2022-09-20T22:11:56.268Z,6.84
2022-09-20T22:15:23.327Z,6.78
2022-09-20T22:18:50.344Z,6.73
2022-09-20T22:22:17.338Z,6.68
2022-09-20T22:25:44.056Z,6.63
2022-09-20T22:29:11.468Z,6.59
2022-09-20T22:32:38.138Z,6.56
2022-09-20T22:36:07.863Z,6.54
2022-09-20T22:39:35.239Z,6.52
2022-09-20T22:43:02.015Z,6.49
2022-09-20T22:46:30.413Z,6.45
2022-09-20T22:49:57.167Z,6.41
